sensor_id;sensor_type;location;lat;lon;timestamp;pressure;altitude;pressure_sealevel;temperature;humidity
32747;BME280;19118;50.860;13.662;2023-02-03T00:00:45;97575.56;;;0.55;100.00
32747;BME280;19118;50.860;13.662;2023-02-03T00:05:46;97578.66;;;0.49;100.00
32747;BME280;19118;50.860;13.662;2023-02-03T00:10:46;97571.91;;;0.58;100.00
32747;BME280;19118;50.860;13.662;2023-02-03T00:15:47;97573.44;;;0.61;100.00
32747;BME280;19118;50.860;13.662;2023-02-03T00:20:47;97554.03;;;0.65;100.00
32747;BME280;19118;50.860;13.662;2023-02-03T00:25:47;97554.84;;;0.65;100.00
32747;BME280;19118;50.860;13.662;2023-02-03T00:30:48;97542.09;;;0.62;100.00
32747;BME280;19118;50.860;13.662;2023-02-03T00:35:48;97537.84;;;0.61;100.00
32747;BME280;19118;50.860;13.662;2023-02-03T00:40:52;97528.16;;;0.52;100.00
32747;BME280;19118;50.860;13.662;2023-02-03T00:45:53;97518.00;;;0.49;100.00
32747;BME280;19118;50.860;13.662;2023-02-03T00:50:53;97509.97;;;0.41;100.00
32747;BME280;19118;50.860;13.662;2023-02-03T00:55:54;97497.66;;;0.43;100.00
32747;BME280;19118;50.860;13.662;2023-02-03T01:00:55;97488.09;;;0.43;100.00
32747;BME280;19118;50.860;13.662;2023-02-03T01:11:12;97462.41;;;0.50;100.00
32747;BME280;19118;50.860;13.662;2023-02-03T01:16:14;97452.25;;;0.47;100.00
32747;BME280;19118;50.860;13.662;2023-02-03T01:21:18;97448.94;;;0.45;100.00
32747;BME280;19118;50.860;13.662;2023-02-03T01:26:20;97430.97;;;0.42;100.00
32747;BME280;19118;50.860;13.662;2023-02-03T01:31:24;97414.41;;;0.43;100.00
32747;BME280;19118;50.860;13.662;2023-02-03T01:36:27;97395.38;;;0.42;100.00
32747;BME280;19118;50.860;13.662;2023-02-03T01:41:30;97383.91;;;0.45;100.00
32747;BME280;19118;50.860;13.662;2023-02-03T01:46:34;97363.56;;;0.50;100.00
32747;BME280;19118;50.860;13.662;2023-02-03T01:51:37;97357.41;;;0.51;100.00
32747;BME280;19118;50.860;13.662;2023-02-03T01:56:43;97364.19;;;0.63;100.00
32747;BME280;19118;50.860;13.662;2023-02-03T02:01:45;97349.97;;;0.67;100.00
32747;BME280;19118;50.860;13.662;2023-02-03T02:06:45;97336.47;;;0.73;100.00
32747;BME280;19118;50.860;13.662;2023-02-03T02:11:47;97323.44;;;0.73;100.00
32747;BME280;19118;50.860;13.662;2023-02-03T02:22:26;97287.94;;;0.93;100.00
32747;BME280;19118;50.860;13.662;2023-02-03T02:38:34;97281.34;;;1.29;100.00
32747;BME280;19118;50.860;13.662;2023-02-03T02:44:00;97270.66;;;1.32;100.00
32747;BME280;19118;50.860;13.662;2023-02-03T02:49:12;97278.63;;;1.40;100.00
32747;BME280;19118;50.860;13.662;2023-02-03T02:54:17;97254.38;;;1.50;100.00
32747;BME280;19118;50.860;13.662;2023-02-03T02:59:19;97263.03;;;1.60;100.00
32747;BME280;19118;50.860;13.662;2023-02-03T03:04:23;97258.91;;;1.67;100.00
32747;BME280;19118;50.860;13.662;2023-02-03T03:09:32;97249.47;;;1.75;100.00
32747;BME280;19118;50.860;13.662;2023-02-03T03:14:39;97234.78;;;1.84;100.00
32747;BME280;19118;50.860;13.662;2023-02-03T03:19:45;97213.78;;;1.95;100.00
32747;BME280;19118;50.860;13.662;2023-02-03T03:24:54;97227.09;;;2.02;100.00
32747;BME280;19118;50.860;13.662;2023-02-03T03:30:01;97218.88;;;2.07;100.00
32747;BME280;19118;50.860;13.662;2023-02-03T03:35:03;97219.13;;;2.13;100.00
32747;BME280;19118;50.860;13.662;2023-02-03T03:40:23;97216.50;;;2.23;100.00
32747;BME280;19118;50.860;13.662;2023-02-03T03:45:43;97214.84;;;2.31;100.00
32747;BME280;19118;50.860;13.662;2023-02-03T03:50:51;97199.66;;;2.54;100.00
32747;BME280;19118;50.860;13.662;2023-02-03T03:55:53;97214.19;;;2.67;100.00
32747;BME280;19118;50.860;13.662;2023-02-03T04:00:59;97214.44;;;2.73;100.00
32747;BME280;19118;50.860;13.662;2023-02-03T04:06:00;97204.53;;;2.77;100.00
32747;BME280;19118;50.860;13.662;2023-02-03T04:11:00;97186.38;;;2.85;100.00
32747;BME280;19118;50.860;13.662;2023-02-03T04:16:01;97190.31;;;2.89;100.00
32747;BME280;19118;50.860;13.662;2023-02-03T04:21:01;97172.03;;;2.89;100.00
32747;BME280;19118;50.860;13.662;2023-02-03T04:26:02;97145.41;;;2.85;100.00
32747;BME280;19118;50.860;13.662;2023-02-03T04:31:02;97159.44;;;2.84;100.00
32747;BME280;19118;50.860;13.662;2023-02-03T04:36:03;97152.78;;;2.90;100.00
32747;BME280;19118;50.860;13.662;2023-02-03T04:41:03;97162.13;;;2.92;100.00
32747;BME280;19118;50.860;13.662;2023-02-03T04:46:03;97170.50;;;2.96;100.00
32747;BME280;19118;50.860;13.662;2023-02-03T04:51:06;97171.59;;;2.93;100.00
32747;BME280;19118;50.860;13.662;2023-02-03T04:56:07;97161.84;;;2.96;100.00
32747;BME280;19118;50.860;13.662;2023-02-03T05:01:08;97164.31;;;2.97;100.00
32747;BME280;19118;50.860;13.662;2023-02-03T05:06:08;97149.97;;;3.01;100.00
32747;BME280;19118;50.860;13.662;2023-02-03T05:11:09;97144.44;;;3.04;100.00
32747;BME280;19118;50.860;13.662;2023-02-03T05:16:09;97144.19;;;3.07;100.00
32747;BME280;19118;50.860;13.662;2023-02-03T05:21:09;97142.44;;;3.16;100.00
32747;BME280;19118;50.860;13.662;2023-02-03T05:26:10;97102.84;;;3.20;100.00
32747;BME280;19118;50.860;13.662;2023-02-03T05:31:10;97088.78;;;3.21;100.00
32747;BME280;19118;50.860;13.662;2023-02-03T05:36:11;97091.09;;;3.25;100.00
32747;BME280;19118;50.860;13.662;2023-02-03T05:41:11;97063.72;;;3.29;100.00
32747;BME280;19118;50.860;13.662;2023-02-03T05:46:30;97081.78;;;3.40;100.00
32747;BME280;19118;50.860;13.662;2023-02-03T05:51:31;97076.41;;;3.41;100.00
32747;BME280;19118;50.860;13.662;2023-02-03T05:56:31;97068.03;;;3.38;100.00
32747;BME280;19118;50.860;13.662;2023-02-03T06:01:32;97090.22;;;3.34;100.00
32747;BME280;19118;50.860;13.662;2023-02-03T06:06:33;97101.03;;;3.39;100.00
32747;BME280;19118;50.860;13.662;2023-02-03T06:11:34;97106.31;;;3.47;100.00
32747;BME280;19118;50.860;13.662;2023-02-03T06:16:35;97084.44;;;3.48;100.00
32747;BME280;19118;50.860;13.662;2023-02-03T06:21:35;97069.72;;;3.47;100.00
32747;BME280;19118;50.860;13.662;2023-02-03T06:26:35;97059.94;;;3.49;100.00
32747;BME280;19118;50.860;13.662;2023-02-03T06:31:36;97053.53;;;3.43;100.00
32747;BME280;19118;50.860;13.662;2023-02-03T06:36:36;97045.69;;;3.43;100.00
32747;BME280;19118;50.860;13.662;2023-02-03T06:41:36;97033.59;;;3.42;100.00
32747;BME280;19118;50.860;13.662;2023-02-03T06:46:37;97027.63;;;3.32;100.00
32747;BME280;19118;50.860;13.662;2023-02-03T06:51:37;97025.75;;;3.42;100.00
32747;BME280;19118;50.860;13.662;2023-02-03T06:56:37;97017.69;;;3.36;100.00
32747;BME280;19118;50.860;13.662;2023-02-03T07:01:38;97002.25;;;3.42;100.00
32747;BME280;19118;50.860;13.662;2023-02-03T07:06:38;96983.78;;;3.44;100.00
32747;BME280;19118;50.860;13.662;2023-02-03T07:11:39;96984.59;;;3.44;100.00
32747;BME280;19118;50.860;13.662;2023-02-03T07:16:39;96979.13;;;3.56;100.00
32747;BME280;19118;50.860;13.662;2023-02-03T07:21:39;96960.81;;;3.56;100.00
32747;BME280;19118;50.860;13.662;2023-02-03T07:26:40;96937.28;;;3.56;100.00
32747;BME280;19118;50.860;13.662;2023-02-03T07:31:40;96945.94;;;3.56;100.00
32747;BME280;19118;50.860;13.662;2023-02-03T07:36:40;96928.38;;;3.66;100.00
32747;BME280;19118;50.860;13.662;2023-02-03T07:41:41;96935.53;;;3.64;100.00
32747;BME280;19118;50.860;13.662;2023-02-03T07:46:41;96914.97;;;3.69;100.00
32747;BME280;19118;50.860;13.662;2023-02-03T07:51:43;96918.25;;;3.71;100.00
32747;BME280;19118;50.860;13.662;2023-02-03T07:56:44;96903.38;;;3.72;100.00
32747;BME280;19118;50.860;13.662;2023-02-03T08:01:44;96893.72;;;3.72;100.00
32747;BME280;19118;50.860;13.662;2023-02-03T08:06:45;96883.75;;;3.68;100.00
32747;BME280;19118;50.860;13.662;2023-02-03T08:11:45;96877.03;;;3.65;100.00
32747;BME280;19118;50.860;13.662;2023-02-03T08:16:45;96881.28;;;3.66;100.00
32747;BME280;19118;50.860;13.662;2023-02-03T08:21:46;96872.31;;;3.69;100.00
32747;BME280;19118;50.860;13.662;2023-02-03T08:26:46;96856.13;;;3.73;100.00
32747;BME280;19118;50.860;13.662;2023-02-03T08:31:47;96870.72;;;3.76;100.00
32747;BME280;19118;50.860;13.662;2023-02-03T08:36:47;96869.22;;;3.73;100.00
32747;BME280;19118;50.860;13.662;2023-02-03T08:41:47;96862.06;;;3.75;100.00
32747;BME280;19118;50.860;13.662;2023-02-03T08:46:51;96874.44;;;3.73;100.00
32747;BME280;19118;50.860;13.662;2023-02-03T08:51:53;96855.97;;;3.67;100.00
32747;BME280;19118;50.860;13.662;2023-02-03T08:56:53;96851.06;;;3.72;100.00
32747;BME280;19118;50.860;13.662;2023-02-03T09:01:54;96838.97;;;3.71;100.00
32747;BME280;19118;50.860;13.662;2023-02-03T09:06:54;96835.91;;;3.75;100.00
32747;BME280;19118;50.860;13.662;2023-02-03T09:11:54;96837.22;;;3.79;100.00
32747;BME280;19118;50.860;13.662;2023-02-03T09:17:02;96843.09;;;3.82;100.00
32747;BME280;19118;50.860;13.662;2023-02-03T09:22:03;96825.44;;;3.84;100.00
32747;BME280;19118;50.860;13.662;2023-02-03T09:27:03;96817.59;;;3.84;100.00
32747;BME280;19118;50.860;13.662;2023-02-03T09:32:04;96806.03;;;3.86;100.00
32747;BME280;19118;50.860;13.662;2023-02-03T09:37:07;96786.88;;;3.86;100.00
32747;BME280;19118;50.860;13.662;2023-02-03T09:47:38;96780.00;;;3.85;100.00
32747;BME280;19118;50.860;13.662;2023-02-03T09:52:40;96765.44;;;3.82;100.00
32747;BME280;19118;50.860;13.662;2023-02-03T09:57:47;96751.56;;;3.82;100.00
32747;BME280;19118;50.860;13.662;2023-02-03T10:02:55;96740.13;;;3.83;100.00
32747;BME280;19118;50.860;13.662;2023-02-03T10:13:31;96721.16;;;3.89;100.00
32747;BME280;19118;50.860;13.662;2023-02-03T10:18:50;96720.84;;;3.92;100.00
32747;BME280;19118;50.860;13.662;2023-02-03T10:23:51;96696.66;;;3.98;100.00
32747;BME280;19118;50.860;13.662;2023-02-03T10:28:56;96690.75;;;4.04;100.00
32747;BME280;19118;50.860;13.662;2023-02-03T10:33:59;96641.38;;;4.01;100.00
32747;BME280;19118;50.860;13.662;2023-02-03T10:39:41;96666.72;;;4.00;100.00
32747;BME280;19118;50.860;13.662;2023-02-03T10:44:58;96679.34;;;3.97;100.00
32747;BME280;19118;50.860;13.662;2023-02-03T10:50:18;96654.13;;;3.96;100.00
32747;BME280;19118;50.860;13.662;2023-02-03T11:00:22;96630.28;;;3.99;100.00
32747;BME280;19118;50.860;13.662;2023-02-03T11:05:27;96646.97;;;3.98;100.00
32747;BME280;19118;50.860;13.662;2023-02-03T11:10:38;96649.88;;;4.03;100.00
32747;BME280;19118;50.860;13.662;2023-02-03T11:15:55;96631.91;;;4.08;100.00
32747;BME280;19118;50.860;13.662;2023-02-03T11:20:56;96653.47;;;4.10;100.00
32747;BME280;19118;50.860;13.662;2023-02-03T11:25:57;96628.94;;;4.11;100.00
32747;BME280;19118;50.860;13.662;2023-02-03T11:30:58;96643.84;;;4.02;100.00
32747;BME280;19118;50.860;13.662;2023-02-03T11:35:58;96636.16;;;4.09;100.00
32747;BME280;19118;50.860;13.662;2023-02-03T11:41:02;96637.94;;;4.08;100.00
32747;BME280;19118;50.860;13.662;2023-02-03T11:46:03;96648.91;;;4.04;100.00
32747;BME280;19118;50.860;13.662;2023-02-03T12:28:54;96468.13;;;4.53;100.00
32747;BME280;19118;50.860;13.662;2023-02-03T12:39:28;96549.41;;;4.67;100.00
32747;BME280;19118;50.860;13.662;2023-02-03T12:44:32;96565.63;;;4.63;100.00
32747;BME280;19118;50.860;13.662;2023-02-03T12:49:44;96556.63;;;4.65;100.00
32747;BME280;19118;50.860;13.662;2023-02-03T12:55:30;96575.59;;;4.67;100.00
32747;BME280;19118;50.860;13.662;2023-02-03T13:00:40;96579.13;;;4.83;100.00
32747;BME280;19118;50.860;13.662;2023-02-03T13:10:52;96550.72;;;4.94;100.00
32747;BME280;19118;50.860;13.662;2023-02-03T13:15:55;96543.59;;;4.80;100.00
32747;BME280;19118;50.860;13.662;2023-02-03T13:20:56;96554.63;;;4.76;100.00
32747;BME280;19118;50.860;13.662;2023-02-03T13:42:31;96655.94;;;3.79;100.00
32747;BME280;19118;50.860;13.662;2023-02-03T13:47:32;96616.41;;;1.81;100.00
32747;BME280;19118;50.860;13.662;2023-02-03T13:53:03;96627.38;;;2.44;100.00
32747;BME280;19118;50.860;13.662;2023-02-03T13:58:26;96618.06;;;2.42;100.00
32747;BME280;19118;50.860;13.662;2023-02-03T14:13:27;96662.44;;;2.76;100.00
32747;BME280;19118;50.860;13.662;2023-02-03T14:18:33;96673.72;;;2.84;100.00
32747;BME280;19118;50.860;13.662;2023-02-03T14:23:40;96713.66;;;2.77;100.00
32747;BME280;19118;50.860;13.662;2023-02-03T14:28:42;96719.50;;;2.71;100.00
32747;BME280;19118;50.860;13.662;2023-02-03T14:38:47;96738.84;;;2.60;100.00
32747;BME280;19118;50.860;13.662;2023-02-03T14:54:43;96733.84;;;2.67;100.00
32747;BME280;19118;50.860;13.662;2023-02-03T15:00:01;96729.28;;;2.69;100.00
32747;BME280;19118;50.860;13.662;2023-02-03T15:15:39;96707.25;;;2.63;100.00
32747;BME280;19118;50.860;13.662;2023-02-03T15:20:40;96719.91;;;2.58;100.00
32747;BME280;19118;50.860;13.662;2023-02-03T15:25:40;96680.84;;;2.40;100.00
32747;BME280;19118;50.860;13.662;2023-02-03T15:30:41;96701.31;;;2.53;100.00
32747;BME280;19118;50.860;13.662;2023-02-03T15:35:43;96714.03;;;2.56;100.00
32747;BME280;19118;50.860;13.662;2023-02-03T15:40:48;96709.97;;;2.53;100.00
32747;BME280;19118;50.860;13.662;2023-02-03T15:46:06;96713.16;;;2.47;100.00
32747;BME280;19118;50.860;13.662;2023-02-03T15:51:27;96727.59;;;2.59;100.00
32747;BME280;19118;50.860;13.662;2023-02-03T15:56:38;96742.84;;;2.46;100.00
32747;BME280;19118;50.860;13.662;2023-02-03T16:01:40;96742.56;;;2.49;100.00
32747;BME280;19118;50.860;13.662;2023-02-03T16:06:44;96748.84;;;2.39;100.00
32747;BME280;19118;50.860;13.662;2023-02-03T16:11:46;96737.06;;;2.34;100.00
32747;BME280;19118;50.860;13.662;2023-02-03T16:16:49;96753.03;;;2.31;100.00
32747;BME280;19118;50.860;13.662;2023-02-03T16:21:56;96750.09;;;2.34;100.00
32747;BME280;19118;50.860;13.662;2023-02-03T16:32:26;96746.66;;;2.52;100.00
32747;BME280;19118;50.860;13.662;2023-02-03T16:37:45;96753.69;;;2.59;100.00
32747;BME280;19118;50.860;13.662;2023-02-03T16:43:09;96767.28;;;2.63;100.00
32747;BME280;19118;50.860;13.662;2023-02-03T16:48:29;96772.66;;;2.61;100.00
32747;BME280;19118;50.860;13.662;2023-02-03T16:53:48;96768.25;;;2.62;100.00
32747;BME280;19118;50.860;13.662;2023-02-03T16:58:48;96778.47;;;2.55;100.00
32747;BME280;19118;50.860;13.662;2023-02-03T17:03:49;96773.91;;;2.57;100.00
32747;BME280;19118;50.860;13.662;2023-02-03T17:08:50;96769.00;;;2.54;100.00
32747;BME280;19118;50.860;13.662;2023-02-03T17:13:51;96782.06;;;2.54;100.00
32747;BME280;19118;50.860;13.662;2023-02-03T17:18:51;96768.66;;;2.49;100.00
32747;BME280;19118;50.860;13.662;2023-02-03T17:23:52;96773.25;;;2.55;100.00
32747;BME280;19118;50.860;13.662;2023-02-03T17:28:53;96759.53;;;2.53;100.00
32747;BME280;19118;50.860;13.662;2023-02-03T17:33:53;96760.03;;;2.57;100.00
32747;BME280;19118;50.860;13.662;2023-02-03T17:38:55;96761.84;;;2.56;100.00
32747;BME280;19118;50.860;13.662;2023-02-03T17:43:58;96776.91;;;2.62;100.00
32747;BME280;19118;50.860;13.662;2023-02-03T17:48:59;96775.72;;;2.57;100.00
32747;BME280;19118;50.860;13.662;2023-02-03T17:53:59;96791.91;;;2.60;100.00
32747;BME280;19118;50.860;13.662;2023-02-03T17:59:05;96789.22;;;2.52;100.00
32747;BME280;19118;50.860;13.662;2023-02-03T18:04:06;96782.28;;;2.61;100.00
32747;BME280;19118;50.860;13.662;2023-02-03T18:09:08;96786.53;;;2.62;100.00
32747;BME280;19118;50.860;13.662;2023-02-03T18:14:11;96794.13;;;2.55;100.00
32747;BME280;19118;50.860;13.662;2023-02-03T18:19:13;96809.19;;;2.61;100.00
32747;BME280;19118;50.860;13.662;2023-02-03T18:24:14;96819.63;;;2.61;100.00
32747;BME280;19118;50.860;13.662;2023-02-03T18:29:18;96814.66;;;2.50;100.00
32747;BME280;19118;50.860;13.662;2023-02-03T18:34:18;96845.66;;;2.53;100.00
32747;BME280;19118;50.860;13.662;2023-02-03T18:39:19;96849.41;;;2.51;100.00
32747;BME280;19118;50.860;13.662;2023-02-03T18:44:19;96848.72;;;2.49;100.00
32747;BME280;19118;50.860;13.662;2023-02-03T18:49:20;96846.94;;;2.49;100.00
32747;BME280;19118;50.860;13.662;2023-02-03T18:54:20;96869.59;;;2.49;100.00
32747;BME280;19118;50.860;13.662;2023-02-03T18:59:21;96877.41;;;2.49;100.00
32747;BME280;19118;50.860;13.662;2023-02-03T19:04:21;96888.16;;;2.63;100.00
32747;BME280;19118;50.860;13.662;2023-02-03T19:09:21;96876.78;;;2.90;100.00
32747;BME280;19118;50.860;13.662;2023-02-03T19:14:23;96886.31;;;3.26;100.00
32747;BME280;19118;50.860;13.662;2023-02-03T19:19:23;96897.16;;;3.39;100.00
32747;BME280;19118;50.860;13.662;2023-02-03T19:24:24;96881.47;;;3.39;100.00
32747;BME280;19118;50.860;13.662;2023-02-03T19:29:26;96896.88;;;3.42;100.00
32747;BME280;19118;50.860;13.662;2023-02-03T19:34:26;96882.78;;;3.35;100.00
32747;BME280;19118;50.860;13.662;2023-02-03T19:39:26;96884.91;;;3.39;100.00
32747;BME280;19118;50.860;13.662;2023-02-03T19:44:27;96893.59;;;3.40;100.00
32747;BME280;19118;50.860;13.662;2023-02-03T19:49:27;96901.31;;;3.24;100.00
32747;BME280;19118;50.860;13.662;2023-02-03T19:54:27;96910.41;;;3.11;100.00
32747;BME280;19118;50.860;13.662;2023-02-03T19:59:28;96924.00;;;2.97;100.00
32747;BME280;19118;50.860;13.662;2023-02-03T20:04:28;96904.56;;;2.74;100.00
32747;BME280;19118;50.860;13.662;2023-02-03T20:09:29;96919.56;;;2.54;100.00
32747;BME280;19118;50.860;13.662;2023-02-03T20:14:29;96923.88;;;2.45;100.00
32747;BME280;19118;50.860;13.662;2023-02-03T20:19:32;96924.75;;;2.36;100.00
32747;BME280;19118;50.860;13.662;2023-02-03T20:24:32;96934.44;;;2.26;100.00
32747;BME280;19118;50.860;13.662;2023-02-03T20:29:32;96935.50;;;2.15;100.00
32747;BME280;19118;50.860;13.662;2023-02-03T20:34:33;96944.75;;;2.00;100.00
32747;BME280;19118;50.860;13.662;2023-02-03T20:39:33;96941.22;;;1.91;100.00
32747;BME280;19118;50.860;13.662;2023-02-03T20:44:33;96933.34;;;1.83;100.00
32747;BME280;19118;50.860;13.662;2023-02-03T20:49:34;96942.38;;;1.79;100.00
32747;BME280;19118;50.860;13.662;2023-02-03T20:54:34;96947.91;;;1.76;100.00
32747;BME280;19118;50.860;13.662;2023-02-03T20:59:34;96950.88;;;1.81;100.00
32747;BME280;19118;50.860;13.662;2023-02-03T21:04:35;96950.88;;;1.81;100.00
32747;BME280;19118;50.860;13.662;2023-02-03T21:09:58;96954.19;;;1.83;100.00
32747;BME280;19118;50.860;13.662;2023-02-03T21:14:59;96946.75;;;1.88;100.00
32747;BME280;19118;50.860;13.662;2023-02-03T21:19:59;96945.41;;;1.84;100.00
32747;BME280;19118;50.860;13.662;2023-02-03T21:25:00;96942.13;;;1.82;100.00
32747;BME280;19118;50.860;13.662;2023-02-03T21:30:21;96944.31;;;1.77;100.00
32747;BME280;19118;50.860;13.662;2023-02-03T21:35:36;96956.69;;;1.75;100.00
32747;BME280;19118;50.860;13.662;2023-02-03T21:40:36;96939.69;;;1.71;100.00
32747;BME280;19118;50.860;13.662;2023-02-03T21:45:40;96952.63;;;1.63;100.00
32747;BME280;19118;50.860;13.662;2023-02-03T21:50:41;96956.50;;;1.59;100.00
32747;BME280;19118;50.860;13.662;2023-02-03T21:55:41;96977.03;;;1.62;100.00
32747;BME280;19118;50.860;13.662;2023-02-03T22:00:42;96981.16;;;1.64;100.00
32747;BME280;19118;50.860;13.662;2023-02-03T22:05:47;96997.88;;;1.62;100.00
32747;BME280;19118;50.860;13.662;2023-02-03T22:10:48;96994.88;;;1.57;100.00
32747;BME280;19118;50.860;13.662;2023-02-03T22:15:48;97013.38;;;1.63;100.00
32747;BME280;19118;50.860;13.662;2023-02-03T22:20:49;97034.09;;;1.65;100.00
32747;BME280;19118;50.860;13.662;2023-02-03T22:25:50;97063.19;;;1.70;100.00
32747;BME280;19118;50.860;13.662;2023-02-03T22:30:50;97111.16;;;1.77;100.00
32747;BME280;19118;50.860;13.662;2023-02-03T22:35:51;97110.19;;;1.78;100.00
32747;BME280;19118;50.860;13.662;2023-02-03T22:40:52;97114.44;;;1.79;100.00
32747;BME280;19118;50.860;13.662;2023-02-03T22:45:53;97116.66;;;1.74;100.00
32747;BME280;19118;50.860;13.662;2023-02-03T22:50:54;97139.16;;;1.65;100.00
32747;BME280;19118;50.860;13.662;2023-02-03T22:55:54;97139.16;;;1.65;100.00
32747;BME280;19118;50.860;13.662;2023-02-03T23:00:55;97128.75;;;1.65;100.00
32747;BME280;19118;50.860;13.662;2023-02-03T23:05:56;97126.00;;;1.67;100.00
32747;BME280;19118;50.860;13.662;2023-02-03T23:10:56;97137.09;;;1.69;100.00
32747;BME280;19118;50.860;13.662;2023-02-03T23:15:56;97141.91;;;1.73;100.00
32747;BME280;19118;50.860;13.662;2023-02-03T23:20:57;97143.25;;;1.78;100.00
32747;BME280;19118;50.860;13.662;2023-02-03T23:25:57;97148.75;;;1.74;100.00
32747;BME280;19118;50.860;13.662;2023-02-03T23:30:57;97148.91;;;1.73;100.00
32747;BME280;19118;50.860;13.662;2023-02-03T23:35:58;97144.38;;;1.65;100.00
32747;BME280;19118;50.860;13.662;2023-02-03T23:40:58;97131.78;;;1.61;100.00
32747;BME280;19118;50.860;13.662;2023-02-03T23:45:58;97144.94;;;1.59;100.00
32747;BME280;19118;50.860;13.662;2023-02-03T23:50:58;97150.97;;;1.60;100.00
32747;BME280;19118;50.860;13.662;2023-02-03T23:55:59;97142.72;;;1.64;100.00
